createdAt,value
2022-09-05T00:02:48.858Z,16.99
2022-09-05T00:06:01.935Z,17.01
2022-09-05T00:09:01.953Z,17.01
2022-09-05T00:11:58.025Z,16.99
2022-09-05T00:15:17.796Z,16.98
2022-09-05T00:20:49.680Z,16.95
2022-09-05T00:24:26.251Z,16.94
2022-09-05T00:25:31.782Z,16.92
2022-09-05T00:28:30.387Z,16.89
2022-09-05T00:31:55.890Z,16.88
2022-09-05T00:35:09.003Z,16.85
2022-09-05T00:38:00.160Z,16.83
2022-09-05T00:40:53.324Z,16.82
2022-09-05T00:43:46.463Z,16.80
2022-09-05T00:46:39.961Z,16.75
2022-09-05T00:49:38.718Z,16.69
2022-09-05T00:52:35.992Z,16.66
2022-09-05T00:55:35.723Z,16.65
2022-09-05T00:58:57.929Z,16.64
2022-09-05T01:01:54.802Z,16.63
2022-09-05T01:04:52.960Z,16.60
2022-09-05T01:07:52.858Z,16.56
2022-09-05T01:10:51.448Z,16.52
2022-09-05T01:13:51.691Z,16.50
2022-09-05T01:17:11.116Z,16.48
2022-09-05T01:20:19.103Z,16.43
2022-09-05T01:23:34.963Z,16.40
2022-09-05T01:26:51.183Z,16.38
2022-09-05T01:29:49.270Z,16.35
2022-09-05T01:32:51.214Z,16.34
2022-09-05T01:36:08.931Z,16.34
2022-09-05T01:40:11.201Z,16.33
2022-09-05T01:42:33.535Z,16.33
2022-09-05T01:45:29.089Z,16.32
2022-09-05T01:48:38.284Z,16.31
2022-09-05T01:51:42.193Z,16.30
2022-09-05T01:54:41.186Z,16.31
2022-09-05T01:57:45.584Z,16.30
2022-09-05T02:00:44.627Z,16.29
2022-09-05T02:03:44.402Z,16.29
2022-09-05T02:06:44.204Z,16.29
2022-09-05T02:09:56.845Z,16.29
2022-09-05T02:13:04.318Z,16.32
2022-09-05T02:16:04.226Z,16.33
2022-09-05T02:19:01.478Z,16.33
2022-09-05T02:22:01.347Z,16.31
2022-09-05T02:26:00.734Z,16.31
2022-09-05T02:28:21.175Z,16.30
2022-09-05T02:31:19.670Z,16.29
2022-09-05T02:34:18.959Z,16.27
2022-09-05T02:37:14.252Z,16.27
2022-09-05T02:45:06.636Z,16.28
2022-09-05T02:45:08.520Z,16.28
2022-09-05T02:47:03.674Z,16.29
2022-09-05T02:53:07.922Z,16.30
2022-09-05T02:57:37.798Z,16.30
2022-09-05T02:57:47.032Z,16.30
2022-09-05T03:00:09.360Z,16.31
2022-09-05T03:03:28.704Z,16.31
2022-09-05T03:06:35.105Z,16.31
2022-09-05T03:09:41.591Z,16.31
2022-09-05T03:12:55.914Z,16.30
2022-09-05T03:16:32.776Z,16.28
2022-09-05T03:20:03.130Z,16.25
2022-09-05T03:23:38.452Z,16.25
2022-09-05T03:26:50.436Z,16.24
2022-09-05T03:30:04.947Z,16.23
2022-09-05T03:33:30.408Z,16.22
2022-09-05T03:36:59.405Z,16.22
2022-09-05T03:40:19.367Z,16.21
2022-09-05T03:43:35.104Z,16.17
2022-09-05T03:46:42.506Z,16.13
2022-09-05T03:55:07.282Z,16.12
2022-09-05T03:57:15.712Z,16.03
2022-09-05T03:57:15.960Z,16.07
2022-09-05T04:00:22.663Z,16.01
2022-09-05T04:08:08.280Z,16.00
2022-09-05T04:08:15.724Z,15.98
2022-09-05T04:09:55.819Z,15.98
2022-09-05T04:12:54.120Z,15.98
2022-09-05T04:15:46.848Z,16.00
2022-09-05T04:18:42.111Z,16.02
2022-09-05T04:21:36.291Z,16.02
2022-09-05T04:24:32.397Z,16.03
2022-09-05T04:27:48.025Z,16.05
2022-09-05T04:30:47.275Z,16.10
2022-09-05T04:33:48.160Z,16.15
2022-09-05T04:36:40.283Z,16.21
2022-09-05T04:39:32.287Z,16.27
2022-09-05T04:42:25.264Z,16.34
2022-09-05T04:45:23.451Z,16.42
2022-09-05T04:48:21.437Z,16.50
2022-09-05T04:51:23.998Z,16.58
2022-09-05T04:54:30.263Z,16.67
2022-09-05T04:57:31.550Z,16.78
2022-09-05T05:06:02.905Z,16.89
2022-09-05T05:06:20.303Z,16.98
2022-09-05T05:06:55.999Z,17.10
2022-09-05T05:10:31.719Z,17.22
2022-09-05T05:18:00.551Z,17.34
2022-09-05T05:18:09.411Z,17.45
2022-09-05T05:19:48.937Z,17.55
2022-09-05T05:23:08.006Z,17.63
2022-09-05T05:26:01.293Z,17.71
2022-09-05T05:28:58.456Z,17.77
2022-09-05T05:31:54.430Z,17.83
2022-09-05T05:34:50.352Z,17.83
2022-09-05T05:37:46.123Z,17.87
2022-09-05T05:40:51.271Z,17.88
2022-09-05T05:43:46.698Z,17.85
2022-09-05T05:46:42.103Z,17.82
2022-09-05T05:49:46.500Z,17.84
2022-09-05T05:53:33.486Z,17.90
2022-09-05T05:56:48.414Z,17.96
2022-09-05T05:59:57.673Z,18.01
2022-09-05T06:03:27.549Z,17.96
2022-09-05T06:06:44.489Z,17.96
2022-09-05T06:14:50.351Z,17.97
2022-09-05T06:15:00.160Z,18.03
2022-09-05T06:17:33.834Z,18.12
2022-09-05T06:22:06.615Z,18.23
2022-09-05T06:24:37.475Z,18.45
2022-09-05T06:28:01.401Z,18.77
2022-09-05T06:31:30.861Z,19.08
2022-09-05T06:35:02.704Z,19.37
2022-09-05T06:38:05.557Z,19.69
2022-09-05T06:41:06.123Z,20.05
2022-09-05T06:44:31.063Z,20.30
2022-09-05T06:47:33.928Z,20.48
2022-09-05T06:50:43.410Z,20.65
2022-09-05T06:54:00.472Z,20.97
2022-09-05T06:57:11.664Z,21.39
2022-09-05T07:00:21.666Z,21.70
2022-09-05T07:03:26.881Z,22.03
2022-09-05T07:07:01.539Z,22.43
2022-09-05T07:09:53.354Z,22.91
2022-09-05T07:12:49.638Z,23.23
2022-09-05T07:15:42.335Z,23.46
2022-09-05T07:18:43.773Z,23.74
2022-09-05T07:21:41.438Z,24.04
2022-09-05T07:24:53.998Z,24.24
2022-09-05T07:28:26.148Z,24.45
2022-09-05T07:31:05.191Z,24.77
2022-09-05T07:34:20.882Z,25.13
2022-09-05T07:37:18.069Z,25.51
2022-09-05T07:40:27.309Z,25.79
2022-09-05T07:43:22.656Z,26.06
2022-09-05T07:46:16.972Z,26.39
2022-09-05T07:49:12.635Z,26.59
2022-09-05T07:56:53.144Z,26.89
2022-09-05T07:56:54.789Z,26.70
2022-09-05T07:58:44.142Z,27.04
2022-09-05T08:01:39.477Z,27.00
2022-09-05T08:04:32.345Z,26.95
2022-09-05T08:07:47.298Z,26.96
2022-09-05T08:11:22.527Z,27.03
2022-09-05T08:14:44.827Z,26.99
2022-09-05T08:17:30.257Z,26.76
2022-09-05T08:20:32.602Z,26.54
2022-09-05T08:23:46.423Z,26.50
2022-09-05T08:26:45.216Z,26.52
2022-09-05T08:29:40.102Z,26.45
2022-09-05T08:32:41.742Z,26.14
2022-09-05T08:35:39.775Z,25.73
2022-09-05T08:38:33.895Z,25.52
2022-09-05T08:41:49.338Z,25.33
2022-09-05T08:46:39.203Z,25.26
2022-09-05T08:48:14.157Z,25.13
2022-09-05T08:51:23.932Z,25.10
2022-09-05T08:54:31.907Z,25.19
2022-09-05T08:57:27.236Z,25.46
2022-09-05T09:00:24.943Z,25.67
2022-09-05T09:03:25.761Z,25.68
2022-09-05T09:06:43.806Z,25.71
2022-09-05T09:09:57.614Z,26.01
2022-09-05T09:13:07.297Z,26.18
2022-09-05T09:16:06.673Z,26.24
2022-09-05T09:19:10.784Z,26.47
2022-09-05T09:22:14.375Z,26.75
2022-09-05T09:25:15.830Z,26.90
2022-09-05T09:28:47.351Z,26.96
2022-09-05T09:32:01.980Z,27.27
2022-09-05T09:35:05.659Z,27.47
2022-09-05T09:38:22.666Z,27.24
2022-09-05T09:41:45.485Z,27.49
2022-09-05T09:45:22.894Z,27.89
2022-09-05T09:48:40.222Z,28.27
2022-09-05T09:52:08.930Z,28.67
2022-09-05T09:55:53.347Z,29.11
2022-09-05T09:59:03.410Z,29.26
2022-09-05T10:03:17.101Z,28.95
2022-09-05T10:10:45.727Z,28.73
2022-09-05T10:10:55.283Z,28.89
2022-09-05T10:13:08.013Z,29.16
2022-09-05T10:16:53.449Z,29.21
2022-09-05T10:20:29.600Z,28.96
2022-09-05T10:23:45.956Z,28.76
2022-09-05T10:27:21.025Z,28.78
2022-09-05T10:30:25.242Z,28.63
2022-09-05T10:35:14.709Z,28.46
2022-09-05T10:36:55.063Z,28.46
2022-09-05T10:39:48.537Z,28.42
2022-09-05T10:42:58.072Z,28.66
2022-09-05T10:46:02.594Z,28.88
2022-09-05T10:48:57.551Z,28.92
2022-09-05T10:51:54.009Z,28.68
2022-09-05T10:55:14.882Z,28.22
2022-09-05T10:58:22.101Z,27.88
2022-09-05T11:02:24.227Z,27.60
2022-09-05T11:04:52.952Z,27.55
2022-09-05T11:07:54.300Z,27.33
2022-09-05T11:10:53.130Z,27.28
2022-09-05T11:13:50.140Z,27.18
2022-09-05T11:16:48.475Z,27.09
2022-09-05T11:19:44.269Z,27.01
2022-09-05T11:22:37.722Z,26.75
2022-09-05T11:25:38.279Z,26.44
2022-09-05T11:28:38.972Z,26.22
2022-09-05T11:36:45.695Z,26.13
2022-09-05T11:39:52.398Z,25.98
2022-09-05T11:40:02.602Z,25.75
2022-09-05T11:42:44.315Z,25.46
2022-09-05T11:46:10.423Z,25.31
2022-09-05T11:49:20.627Z,25.23
2022-09-05T11:52:47.595Z,25.26
2022-09-05T11:56:00.376Z,25.27
2022-09-05T11:59:33.455Z,25.31
2022-09-05T12:02:49.968Z,25.36
2022-09-05T12:06:14.766Z,25.35
2022-09-05T12:09:14.320Z,25.22
2022-09-05T12:12:39.363Z,25.03
2022-09-05T12:15:34.542Z,24.90
2022-09-05T12:18:36.627Z,24.90
2022-09-05T12:21:38.389Z,24.92
2022-09-05T12:25:25.251Z,24.92
2022-09-05T12:28:03.865Z,25.00
2022-09-05T12:33:11.430Z,25.01
2022-09-05T12:36:11.387Z,25.06
2022-09-05T12:40:58.716Z,25.06
2022-09-05T12:41:44.040Z,25.05
2022-09-05T12:44:52.242Z,25.12
2022-09-05T12:47:59.306Z,25.23
2022-09-05T12:50:58.772Z,25.30
2022-09-05T12:53:52.082Z,25.37
2022-09-05T12:58:57.879Z,25.31
2022-09-05T13:03:03.375Z,25.18
2022-09-05T13:03:28.844Z,25.09
2022-09-05T13:06:30.257Z,25.13
2022-09-05T13:09:29.422Z,25.17
2022-09-05T13:15:03.211Z,25.21
2022-09-05T13:15:59.348Z,25.21
2022-09-05T13:18:51.937Z,25.21
2022-09-05T13:21:52.846Z,25.17
2022-09-05T13:24:48.176Z,25.23
2022-09-05T13:27:46.771Z,25.23
2022-09-05T13:37:39.543Z,25.19
2022-09-05T13:38:07.305Z,25.13
2022-09-05T13:38:10.927Z,25.17
2022-09-05T13:40:34.109Z,25.24
2022-09-05T13:43:27.787Z,25.28
2022-09-05T13:46:22.584Z,25.32
2022-09-05T13:49:26.745Z,25.39
2022-09-05T13:52:31.516Z,25.42
2022-09-05T13:55:33.620Z,25.45
2022-09-05T13:58:33.290Z,25.51
2022-09-05T14:02:20.061Z,25.58
2022-09-05T14:05:21.081Z,25.67
2022-09-05T14:08:41.332Z,25.72
2022-09-05T14:11:56.962Z,25.75
2022-09-05T14:15:09.299Z,25.76
2022-09-05T14:18:20.547Z,25.72
2022-09-05T14:21:17.465Z,25.71
2022-09-05T14:24:12.994Z,25.69
2022-09-05T14:27:17.123Z,25.68
2022-09-05T14:32:27.619Z,25.65
2022-09-05T14:37:42.127Z,25.60
2022-09-05T14:37:54.944Z,25.61
2022-09-05T14:39:57.848Z,25.49
2022-09-05T14:42:51.656Z,25.44
2022-09-05T14:45:53.737Z,25.31
2022-09-05T14:48:53.511Z,25.02
2022-09-05T14:51:43.206Z,24.76
2022-09-05T15:00:12.125Z,24.31
2022-09-05T15:02:51.310Z,24.15
2022-09-05T15:03:15.281Z,24.05
2022-09-05T15:05:51.574Z,23.93
2022-09-05T15:11:24.028Z,23.88
2022-09-05T15:12:21.806Z,23.82
2022-09-05T15:14:29.427Z,23.76
2022-09-05T15:17:05.917Z,23.71
2022-09-05T15:20:05.263Z,23.70
2022-09-05T15:22:42.095Z,23.71
2022-09-05T15:25:21.600Z,23.71
2022-09-05T15:27:54.676Z,23.69
2022-09-05T15:30:35.717Z,23.67
2022-09-05T15:33:18.234Z,23.64
2022-09-05T15:35:59.380Z,23.60
2022-09-05T15:38:54.302Z,23.57
2022-09-05T15:41:30.311Z,23.53
2022-09-05T15:44:09.625Z,23.54
2022-09-05T15:46:51.482Z,23.56
2022-09-05T15:49:30.286Z,23.58
2022-09-05T15:52:06.061Z,23.58
2022-09-05T15:54:43.594Z,23.61
2022-09-05T15:57:26.750Z,23.62
2022-09-05T16:00:02.130Z,23.61
2022-09-05T16:02:39.160Z,23.57
2022-09-05T16:10:27.143Z,23.51
2022-09-05T16:10:39.699Z,23.49
2022-09-05T16:12:07.307Z,23.47
2022-09-05T16:14:25.599Z,23.45
2022-09-05T16:23:14.399Z,23.43
2022-09-05T16:23:26.771Z,23.38
2022-09-05T16:23:27.595Z,23.34
2022-09-05T16:26:02.352Z,23.32
2022-09-05T16:28:39.118Z,23.30
2022-09-05T16:31:18.214Z,23.28
2022-09-05T16:33:51.375Z,23.25
2022-09-05T16:36:29.906Z,23.23
2022-09-05T16:39:04.891Z,23.21
2022-09-05T16:41:44.405Z,23.19
2022-09-05T16:44:25.222Z,23.16
2022-09-05T16:47:11.257Z,23.10
2022-09-05T16:49:55.328Z,23.07
2022-09-05T16:52:38.591Z,23.05
2022-09-05T16:55:29.314Z,23.02
2022-09-05T16:58:14.084Z,22.98
2022-09-05T17:01:07.122Z,22.95
2022-09-05T17:03:52.579Z,22.91
2022-09-05T17:06:33.481Z,22.88
2022-09-05T17:09:13.766Z,22.86
2022-09-05T17:12:00.789Z,22.84
2022-09-05T17:14:38.060Z,22.82
2022-09-05T17:18:04.662Z,22.81
2022-09-05T17:20:15.110Z,22.81
2022-09-05T17:28:24.127Z,22.79
2022-09-05T17:29:45.742Z,22.77
2022-09-05T17:32:49.953Z,22.73
2022-09-05T17:35:48.944Z,22.74
2022-09-05T17:38:43.883Z,22.74
2022-09-05T17:41:53.624Z,22.74
2022-09-05T17:44:31.291Z,22.72
2022-09-05T17:47:15.260Z,22.70
2022-09-05T17:49:50.570Z,22.67
2022-09-05T17:52:24.734Z,22.65
2022-09-05T17:54:57.894Z,22.60
2022-09-05T17:57:50.600Z,22.56
2022-09-05T18:01:05.493Z,22.51
2022-09-05T18:04:08.455Z,22.45
2022-09-05T18:07:00.196Z,22.40
2022-09-05T18:13:13.520Z,22.34
2022-09-05T18:16:12.623Z,22.30
2022-09-05T18:19:33.163Z,22.22
2022-09-05T18:21:53.907Z,22.15
2022-09-05T18:24:36.309Z,22.10
2022-09-05T18:28:03.590Z,22.07
2022-09-05T18:30:45.323Z,22.02
2022-09-05T18:33:55.904Z,22.01
2022-09-05T18:36:36.158Z,22.01
2022-09-05T18:39:44.146Z,22.00
2022-09-05T18:42:26.631Z,21.93
2022-09-05T18:45:16.070Z,21.87
2022-09-05T18:47:58.948Z,21.84
2022-09-05T18:50:39.948Z,21.81
2022-09-05T18:53:25.262Z,21.78
2022-09-05T18:56:10.010Z,21.73
2022-09-05T18:58:55.534Z,21.69
2022-09-05T19:01:39.459Z,21.66
2022-09-05T19:04:40.591Z,21.62
2022-09-05T19:07:22.497Z,21.60
2022-09-05T19:10:33.935Z,21.58
2022-09-05T19:13:09.338Z,21.53
2022-09-05T19:15:53.007Z,21.50
2022-09-05T19:18:38.583Z,21.46
2022-09-05T19:21:16.810Z,21.42
2022-09-05T19:23:53.752Z,21.39
2022-09-05T19:26:30.864Z,21.36
2022-09-05T19:36:33.269Z,21.34
2022-09-05T19:36:56.453Z,21.31
2022-09-05T19:36:58.522Z,21.31
2022-09-05T19:37:59.965Z,21.31
2022-09-05T19:47:25.818Z,21.31
2022-09-05T19:47:36.961Z,21.32
2022-09-05T19:47:37.598Z,21.32
2022-09-05T19:49:18.218Z,21.34
2022-09-05T19:51:50.867Z,21.35
2022-09-05T19:54:32.211Z,21.36
2022-09-05T19:57:06.510Z,21.35
2022-09-05T19:59:41.661Z,21.34
2022-09-05T20:02:19.915Z,21.37
2022-09-05T20:04:55.903Z,21.40
2022-09-05T20:07:30.100Z,21.42
2022-09-05T20:10:05.372Z,21.42
2022-09-05T20:12:39.975Z,21.40
2022-09-05T20:15:28.003Z,21.37
2022-09-05T20:18:20.817Z,21.34
2022-09-05T20:21:00.910Z,21.31
2022-09-05T20:23:33.944Z,21.32
2022-09-05T20:26:06.263Z,21.34
2022-09-05T20:28:40.404Z,21.37
2022-09-05T20:31:20.311Z,21.42
2022-09-05T20:33:56.691Z,21.42
2022-09-05T20:43:11.458Z,21.38
2022-09-05T20:43:16.383Z,21.23
2022-09-05T20:43:28.519Z,21.30
2022-09-05T20:45:45.531Z,21.21
2022-09-05T20:54:07.047Z,21.17
2022-09-05T20:54:25.002Z,21.11
2022-09-05T20:54:31.937Z,21.02
2022-09-05T20:57:15.892Z,20.95
2022-09-05T20:59:48.834Z,20.92
2022-09-05T21:02:26.792Z,20.89
2022-09-05T21:05:20.235Z,20.88
2022-09-05T21:08:06.871Z,20.88
2022-09-05T21:10:55.125Z,20.88
2022-09-05T21:13:30.874Z,20.87
2022-09-05T21:16:04.464Z,20.87
2022-09-05T21:18:42.687Z,20.87
2022-09-05T21:21:28.535Z,20.88
2022-09-05T21:24:17.864Z,20.88
2022-09-05T21:26:52.303Z,20.88
2022-09-05T21:29:32.749Z,20.86
2022-09-05T21:32:10.812Z,20.84
2022-09-05T21:34:51.607Z,20.84
2022-09-05T21:37:25.767Z,20.86
2022-09-05T21:40:00.928Z,20.89
2022-09-05T21:47:38.255Z,20.92
2022-09-05T21:47:45.067Z,20.96
2022-09-05T21:48:20.510Z,20.99
2022-09-05T21:50:54.585Z,21.02
2022-09-05T21:55:51.790Z,21.05
2022-09-05T21:59:17.321Z,21.07
2022-09-05T21:59:37.027Z,21.10
2022-09-05T22:02:17.002Z,21.11
2022-09-05T22:04:49.864Z,21.11
2022-09-05T22:07:32.276Z,21.09
2022-09-05T22:10:08.636Z,21.07
2022-09-05T22:12:40.929Z,20.99
2022-09-05T22:15:28.215Z,20.95
2022-09-05T22:18:16.280Z,20.93
2022-09-05T22:21:32.197Z,20.92
2022-09-05T22:23:47.931Z,20.90
2022-09-05T22:26:21.703Z,20.85
2022-09-05T22:28:54.010Z,20.79
2022-09-05T22:31:27.655Z,20.74
2022-09-05T22:34:00.405Z,20.71
2022-09-05T22:36:35.434Z,20.67
2022-09-05T22:39:08.295Z,20.63
2022-09-05T22:41:41.740Z,20.59
2022-09-05T22:44:13.938Z,20.58
2022-09-05T22:46:46.142Z,20.56
2022-09-05T22:49:18.321Z,20.56
2022-09-05T22:51:50.492Z,20.57
2022-09-05T22:54:23.574Z,20.56
2022-09-05T22:56:55.745Z,20.58
2022-09-05T22:59:27.920Z,20.61
2022-09-05T23:02:00.206Z,20.63
2022-09-05T23:04:32.538Z,20.64
2022-09-05T23:07:05.764Z,20.66
2022-09-05T23:09:37.940Z,20.70
2022-09-05T23:12:10.420Z,20.73
2022-09-05T23:14:42.566Z,20.77
2022-09-05T23:17:15.674Z,20.79
2022-09-05T23:19:47.886Z,20.81
2022-09-05T23:22:20.059Z,20.83
2022-09-05T23:24:52.255Z,20.83
2022-09-05T23:27:24.602Z,20.83
2022-09-05T23:29:56.758Z,20.83
2022-09-05T23:32:28.945Z,20.81
2022-09-05T23:35:01.844Z,20.79
2022-09-05T23:37:34.014Z,20.75
2022-09-05T23:40:07.533Z,20.73
2022-09-05T23:42:39.972Z,20.70
2022-09-05T23:45:13.468Z,20.68
2022-09-05T23:47:45.712Z,20.65
2022-09-05T23:50:18.793Z,20.63
2022-09-05T23:52:51.995Z,20.64
2022-09-05T23:55:24.800Z,20.64
2022-09-05T23:58:01.330Z,20.65
